NRT weather

Narita International Airport
Tokyo, Chiba Prefecture, Japan

Public forecast

Using degrees Celsius for public forecast. Weather courtesy of forecast.io.

Current aviation weather report (METAR) for Narita International Airport

Retrieved 2019/10/13 19:30 UTC (0 seconds ago):

RJAA 131930Z 01012KT 9999 FEW015 SCT080 BKN120 17/14 Q1021 NOSIG RMK 1CU015 3AC080 7AC120 A3017

Aviation forecast (TAF) for Narita International Airport

Retrieved 2019/10/13 18:00 UTC (1 hour ago):

TAF RJAA 131706Z 1318/1500 03010KT 9999 FEW010 BKN020 BECMG 1323/1401 07010KT BECMG 1403/1405 36012KT TEMPO 1405/1409 4000 -RA BR FEW005 BKN008 TEMPO 1415/1421 4000 -RA BR FEW002 BKN004